Bath, Ohio
Current Conditions -  °F | °C
As of 1:54 PM on Monday 20 Oct 2014 (Local Time) from KAKR Reporting Station
Overcast Overcast  
Wind Chill: 56°   Ceiling: 8000
Heat Index: 56°   Visibility: 10mi
Dew Point: 44°   Wind: 14mph
Humidity: 64%   Direction: 210°SSW
Pressure: 29.86"   Gusts: NA
Location:  41.19°N, 81.64°W
Report Text: KAKR 201754Z AUTO 21012KT 10SM OVC080 13/07 A2986 RMK AO2 SLP114 60000 T01330067 10139 20083 58022
Loading
Personal Weather Stations






























Interactive Weather Map
Tropical Storm Tracking
New forecast layout! Learn more

10-Day Weather Forecast

Advertisements
Track Severe Weather on mobile